Christialou — FI8820 — position and weather

sailwx.info

Track history (hours):
 
Tides and Currents Weather Stations Pressure Air Temp Water Temp Dewpoint Dewpoint Depression Visibility Wind Speed Wind Dir Waves Ship Positions

Christialou

Last reported at 2017-Sep-22 02:00 UTC. Time now 2017-Sep-22 08:30 UTC.
Position N 47°41' W 003°26'.

Length 9 m.

Type: Fishing. MMSI: 227629670.

Date/timePositionNaut miles runAvg speedWind from/ knotsBaromVisibWave heightAir tempDewpointWater temp
2017-Sep-22 02:00N 47°41' W 003°26'3 6.4
2017-Sep-22 01:30N 47°43' W 003°22'1 0.0
2017-Sep-21 11:23N 47°44' W 003°22'0 0.3
2017-Sep-21 11:00N 47°44' W 003°22'3 6.6
2017-Sep-21 10:29N 47°41' W 003°26'2 1.7
2017-Sep-21 09:28N 47°42' W 003°28'0 0.1
2017-Sep-21 02:54N 47°41' W 003°28'3 6.8
2017-Sep-21 02:29N 47°42' W 003°24'2 4.9
2017-Sep-21 02:00N 47°44' W 003°22'0 0.0
2017-Sep-20 12:03N 47°44' W 003°22'0 0.7
2017-Sep-20 12:00N 47°44' W 003°22'0 0.0
2017-Sep-20 11:29N 47°44' W 003°22'4 7.4
2017-Sep-20 11:00N 47°41' W 003°26'5 0.8
2017-Sep-20 05:40N 47°41' W 003°32'2 4.3
2017-Sep-20 05:16N 47°41' W 003°30'1 3.1
2017-Sep-20 04:55N 47°42' W 003°28'1 1.2
2017-Sep-20 04:30N 47°41' W 003°28'1 0.7
2017-Sep-20 02:41N 47°41' W 003°29'2 7.2
2017-Sep-20 02:26N 47°41' W 003°27'3 6.3
2017-Sep-20 02:00N 47°42' W 003°23'2 0.1
2017-Sep-19 12:32N 47°44' W 003°22'0 0.4
2017-Sep-19 12:28N 47°44' W 003°22'2 3.7
2017-Sep-19 12:00N 47°42' W 003°22'3 5.3
2017-Sep-19 11:29N 47°42' W 003°26'2 0.2
2017-Sep-19 03:36N 47°41' W 003°28'1 8.3
2017-Sep-19 03:30N 47°41' W 003°27'1 0.8
2017-Sep-19 02:49N 47°41' W 003°28'3 7.8
2017-Sep-19 02:30N 47°41' W 003°24'3 5.8
2017-Sep-19 02:00N 47°44' W 003°22'0 0.0
2017-Sep-18 07:13N 47°44' W 003°22'0 0.0
2017-Sep-18 06:58N 47°44' W 003°22'0 0.0
2017-Sep-16 12:51N 47°44' W 003°22'0 0.2
2017-Sep-16 12:30N 47°44' W 003°22'3 6.1
2017-Sep-16 12:00N 47°41' W 003°25'1 1.2
2017-Sep-16 11:30N 47°41' W 003°25'1 2.4
2017-Sep-16 11:00N 47°40' W 003°26'1 1.1
2017-Sep-16 10:25N 47°40' W 003°27'1 2.5
2017-Sep-16 10:00N 47°41' W 003°28'1 2.5
2017-Sep-16 09:30N 47°40' W 003°27'3 5.5
2017-Sep-16 08:54N 47°37' W 003°26'2 5.4
2017-Sep-16 08:27N 47°36' W 003°29'1 1.6
2017-Sep-16 08:00N 47°35' W 003°28'1 1.3
2017-Sep-16 07:26N 47°34' W 003°28'1 1.4
2017-Sep-16 06:53N 47°35' W 003°29'1 1.9
2017-Sep-16 06:29N 47°35' W 003°28'3 5.6
2017-Sep-16 06:00N 47°36' W 003°24'1 2.6
2017-Sep-16 05:30N 47°37' W 003°23'1 1.3
2017-Sep-16 05:00N 47°38' W 003°23'1 1.3
2017-Sep-16 04:30N 47°37' W 003°23'1 2.5
2017-Sep-16 04:00N 47°37' W 003°25'3 6.2
2017-Sep-16 03:29N 47°35' W 003°29'2 3.4
2017-Sep-16 03:00N 47°36' W 003°27'4 6.7
2017-Sep-16 02:27N 47°39' W 003°26'1 3.0
2017-Sep-16 02:00N 47°41' W 003°25'4 7.3
2017-Sep-16 01:30N 47°44' W 003°22'0 0.0
2017-Sep-15 12:42N 47°44' W 003°22'0 0.2
2017-Sep-15 12:29N 47°44' W 003°22'2 4.1
2017-Sep-15 12:00N 47°42' W 003°23'2 4.3
2017-Sep-15 11:30N 47°41' W 003°26'0 0.9
2017-Sep-15 11:00N 47°41' W 003°25'0 0.6
2017-Sep-15 10:30N 47°41' W 003°25'3 5.1
2017-Sep-15 09:53N 47°42' W 003°30'2 1.7
2017-Sep-15 08:57N 47°41' W 003°32'1 2.7
2017-Sep-15 08:30N 47°42' W 003°30'1 1.6
2017-Sep-15 07:55N 47°42' W 003°29'1 1.5
2017-Sep-15 07:30N 47°42' W 003°28'0 0.9
2017-Sep-15 06:59N 47°42' W 003°28'3 0.9
2017-Sep-15 03:20N 47°42' W 003°33'2 4.8
2017-Sep-15 03:00N 47°42' W 003°30'1 2.2
2017-Sep-15 02:28N 47°42' W 003°28'2 4.9
2017-Sep-15 02:00N 47°41' W 003°25'3 5.6
2017-Sep-15 01:30N 47°42' W 003°22'1 0.0
2017-Sep-13 09:50N 47°44' W 003°22'  
Track history (hours):
 
Tides and Currents Weather Stations Pressure Air Temp Water Temp Dewpoint Dewpoint Depression Visibility Wind Speed Wind Dir Waves Ship Positions

Christialou

Last reported at 2017-Sep-22 02:00 UTC. Time now 2017-Sep-22 08:30 UTC.
Position N 47°41' W 003°26'.

Length 9 m.

Type: Fishing. MMSI: 227629670.

Date/timePositionNaut miles runAvg speedWind from/ knotsBaromVisibWave heightAir tempDewpointWater temp
2017-Sep-22 02:00N 47°41' W 003°26'3 6.4
2017-Sep-22 01:30N 47°43' W 003°22'1 0.0
2017-Sep-21 11:23N 47°44' W 003°22'0 0.3
2017-Sep-21 11:00N 47°44' W 003°22'3 6.6
2017-Sep-21 10:29N 47°41' W 003°26'2 1.7
2017-Sep-21 09:28N 47°42' W 003°28'0 0.1
2017-Sep-21 02:54N 47°41' W 003°28'3 6.8
2017-Sep-21 02:29N 47°42' W 003°24'2 4.9
2017-Sep-21 02:00N 47°44' W 003°22'0 0.0
2017-Sep-20 12:03N 47°44' W 003°22'0 0.7
2017-Sep-20 12:00N 47°44' W 003°22'0 0.0
2017-Sep-20 11:29N 47°44' W 003°22'4 7.4
2017-Sep-20 11:00N 47°41' W 003°26'5 0.8
2017-Sep-20 05:40N 47°41' W 003°32'2 4.3
2017-Sep-20 05:16N 47°41' W 003°30'1 3.1
2017-Sep-20 04:55N 47°42' W 003°28'1 1.2
2017-Sep-20 04:30N 47°41' W 003°28'1 0.7
2017-Sep-20 02:41N 47°41' W 003°29'2 7.2
2017-Sep-20 02:26N 47°41' W 003°27'3 6.3
2017-Sep-20 02:00N 47°42' W 003°23'2 0.1
2017-Sep-19 12:32N 47°44' W 003°22'0 0.4
2017-Sep-19 12:28N 47°44' W 003°22'2 3.7
2017-Sep-19 12:00N 47°42' W 003°22'3 5.3
2017-Sep-19 11:29N 47°42' W 003°26'2 0.2
2017-Sep-19 03:36N 47°41' W 003°28'1 8.3
2017-Sep-19 03:30N 47°41' W 003°27'1 0.8
2017-Sep-19 02:49N 47°41' W 003°28'3 7.8
2017-Sep-19 02:30N 47°41' W 003°24'3 5.8
2017-Sep-19 02:00N 47°44' W 003°22'0 0.0
2017-Sep-18 07:13N 47°44' W 003°22'0 0.0
2017-Sep-18 06:58N 47°44' W 003°22'0 0.0
2017-Sep-16 12:51N 47°44' W 003°22'0 0.2
2017-Sep-16 12:30N 47°44' W 003°22'3 6.1
2017-Sep-16 12:00N 47°41' W 003°25'1 1.2
2017-Sep-16 11:30N 47°41' W 003°25'1 2.4
2017-Sep-16 11:00N 47°40' W 003°26'1 1.1
2017-Sep-16 10:25N 47°40' W 003°27'1 2.5
2017-Sep-16 10:00N 47°41' W 003°28'1 2.5
2017-Sep-16 09:30N 47°40' W 003°27'3 5.5
2017-Sep-16 08:54N 47°37' W 003°26'2 5.4
2017-Sep-16 08:27N 47°36' W 003°29'1 1.6
2017-Sep-16 08:00N 47°35' W 003°28'1 1.3
2017-Sep-16 07:26N 47°34' W 003°28'1 1.4
2017-Sep-16 06:53N 47°35' W 003°29'1 1.9
2017-Sep-16 06:29N 47°35' W 003°28'3 5.6
2017-Sep-16 06:00N 47°36' W 003°24'1 2.6
2017-Sep-16 05:30N 47°37' W 003°23'1 1.3
2017-Sep-16 05:00N 47°38' W 003°23'1 1.3
2017-Sep-16 04:30N 47°37' W 003°23'1 2.5
2017-Sep-16 04:00N 47°37' W 003°25'3 6.2
2017-Sep-16 03:29N 47°35' W 003°29'2 3.4
2017-Sep-16 03:00N 47°36' W 003°27'4 6.7
2017-Sep-16 02:27N 47°39' W 003°26'1 3.0
2017-Sep-16 02:00N 47°41' W 003°25'4 7.3
2017-Sep-16 01:30N 47°44' W 003°22'0 0.0
2017-Sep-15 12:42N 47°44' W 003°22'0 0.2
2017-Sep-15 12:29N 47°44' W 003°22'2 4.1
2017-Sep-15 12:00N 47°42' W 003°23'2 4.3
2017-Sep-15 11:30N 47°41' W 003°26'0 0.9
2017-Sep-15 11:00N 47°41' W 003°25'0 0.6
2017-Sep-15 10:30N 47°41' W 003°25'3 5.1
2017-Sep-15 09:53N 47°42' W 003°30'2 1.7
2017-Sep-15 08:57N 47°41' W 003°32'1 2.7
2017-Sep-15 08:30N 47°42' W 003°30'1 1.6
2017-Sep-15 07:55N 47°42' W 003°29'1 1.5
2017-Sep-15 07:30N 47°42' W 003°28'0 0.9
2017-Sep-15 06:59N 47°42' W 003°28'3 0.9
2017-Sep-15 03:20N 47°42' W 003°33'2 4.8
2017-Sep-15 03:00N 47°42' W 003°30'1 2.2
2017-Sep-15 02:28N 47°42' W 003°28'2 4.9
2017-Sep-15 02:00N 47°41' W 003°25'3 5.6
2017-Sep-15 01:30N 47°42' W 003°22'1 0.0
2017-Sep-13 09:50N 47°44' W 003°22'  

Dump ship's entire track history